createdAt,value
2023-05-06T00:01:32.207Z,8.05
2023-05-06T00:03:58.993Z,8.03
2023-05-06T00:06:25.818Z,7.91
2023-05-06T00:08:52.474Z,7.70
2023-05-06T00:11:19.107Z,7.55
2023-05-06T00:13:45.770Z,7.60
2023-05-06T00:16:12.407Z,7.34
2023-05-06T00:18:39.163Z,6.53
2023-05-06T00:21:05.923Z,6.29
2023-05-06T00:23:32.662Z,6.77
2023-05-06T00:25:59.317Z,6.70
2023-05-06T00:28:25.992Z,6.57
2023-05-06T00:30:52.630Z,6.70
2023-05-06T00:33:19.312Z,6.47
2023-05-06T00:35:46.086Z,6.19
2023-05-06T00:38:13.678Z,6.61
2023-05-06T00:40:40.360Z,6.91
2023-05-06T00:43:07.094Z,7.01
2023-05-06T00:45:33.869Z,7.24
2023-05-06T00:48:00.585Z,7.36
2023-05-06T00:50:28.414Z,7.49
2023-05-06T00:52:55.685Z,7.32
2023-05-06T00:55:22.435Z,7.14
2023-05-06T00:57:50.475Z,7.15
2023-05-06T01:00:17.528Z,7.11
2023-05-06T01:02:47.618Z,7.20
2023-05-06T01:05:16.393Z,7.16
2023-05-06T01:07:48.985Z,7.28
2023-05-06T01:10:27.881Z,7.09
2023-05-06T01:13:53.413Z,7.13
2023-05-06T01:16:20.468Z,7.05
2023-05-06T01:18:47.125Z,7.18
2023-05-06T01:21:13.760Z,7.11
2023-05-06T01:23:57.812Z,6.98
2023-05-06T01:26:24.909Z,6.76
2023-05-06T01:28:51.637Z,6.81
2023-05-06T01:31:31.435Z,6.88
2023-05-06T01:34:18.690Z,6.78
2023-05-06T01:37:14.718Z,6.67
2023-05-06T01:39:42.000Z,6.79
2023-05-06T01:42:08.578Z,6.93
2023-05-06T01:44:35.249Z,7.05
2023-05-06T01:47:01.964Z,6.98
2023-05-06T01:49:28.620Z,7.14
2023-05-06T01:51:55.368Z,7.23
2023-05-06T01:54:22.000Z,7.41
2023-05-06T01:56:48.684Z,7.14
2023-05-06T01:59:15.389Z,6.82
2023-05-06T02:01:42.126Z,6.36
2023-05-06T02:04:08.767Z,5.97
2023-05-06T02:06:35.440Z,6.13
2023-05-06T02:09:02.076Z,6.33
2023-05-06T02:11:28.849Z,6.21
2023-05-06T02:13:55.682Z,6.23
2023-05-06T02:16:22.342Z,6.24
2023-05-06T02:18:49.452Z,6.43
2023-05-06T02:21:16.076Z,6.45
2023-05-06T02:23:42.712Z,6.56
2023-05-06T02:26:09.337Z,6.63
2023-05-06T02:28:36.031Z,6.73
2023-05-06T02:31:02.800Z,6.59
2023-05-06T02:33:29.511Z,6.44
2023-05-06T02:35:56.227Z,6.51
2023-05-06T02:38:22.913Z,6.46
2023-05-06T02:40:49.560Z,6.80
2023-05-06T02:43:16.197Z,6.44
2023-05-06T02:45:42.927Z,6.40
2023-05-06T02:48:09.626Z,6.53
2023-05-06T02:50:36.325Z,6.63
2023-05-06T02:53:02.968Z,6.66
2023-05-06T02:55:29.592Z,6.37
2023-05-06T02:57:56.242Z,6.21
2023-05-06T03:00:22.880Z,6.27
2023-05-06T03:02:49.537Z,6.14
2023-05-06T03:05:16.345Z,6.28
2023-05-06T03:07:43.057Z,6.24
2023-05-06T03:10:10.434Z,6.19
2023-05-06T03:12:37.117Z,6.11
2023-05-06T03:15:04.010Z,6.10
2023-05-06T03:17:30.697Z,5.79
2023-05-06T03:19:57.361Z,5.78
2023-05-06T03:22:24.013Z,5.72
2023-05-06T03:24:50.713Z,5.44
2023-05-06T03:27:17.395Z,5.36
2023-05-06T03:29:44.009Z,5.57
2023-05-06T03:32:10.743Z,5.52
2023-05-06T03:34:37.365Z,5.61
2023-05-06T03:37:04.049Z,5.76
2023-05-06T03:39:30.695Z,5.81
2023-05-06T03:41:57.582Z,5.73
2023-05-06T03:44:24.394Z,6.04
2023-05-06T03:46:51.050Z,6.14
2023-05-06T03:49:17.783Z,6.25
2023-05-06T03:51:44.532Z,6.07
2023-05-06T03:54:11.201Z,6.18
2023-05-06T03:56:37.816Z,6.13
2023-05-06T03:59:04.517Z,6.00
2023-05-06T04:01:31.316Z,6.04
2023-05-06T04:03:58.138Z,6.01
2023-05-06T04:06:26.145Z,6.08
2023-05-06T04:08:52.861Z,6.25
2023-05-06T04:11:19.606Z,6.19
2023-05-06T04:13:46.262Z,6.27
2023-05-06T04:16:12.919Z,6.02
2023-05-06T04:18:39.906Z,6.18
2023-05-06T04:21:06.950Z,6.01
2023-05-06T04:23:33.629Z,6.06
2023-05-06T04:26:00.256Z,6.09
2023-05-06T04:28:26.932Z,6.31
2023-05-06T04:30:53.609Z,6.38
2023-05-06T04:33:20.891Z,6.66
2023-05-06T04:35:53.841Z,6.42
2023-05-06T04:38:25.803Z,6.55
2023-05-06T04:40:52.833Z,6.66
2023-05-06T04:43:19.639Z,6.71
2023-05-06T04:45:55.350Z,6.20
2023-05-06T04:48:22.436Z,6.52
2023-05-06T04:50:49.628Z,6.64
2023-05-06T04:53:16.521Z,6.77
2023-05-06T04:55:43.288Z,6.65
2023-05-06T04:58:09.829Z,6.64
2023-05-06T05:00:36.604Z,6.55
2023-05-06T05:03:03.771Z,6.77
2023-05-06T05:05:33.499Z,7.04
2023-05-06T05:08:00.047Z,7.09
2023-05-06T05:10:26.860Z,7.17
2023-05-06T05:12:53.592Z,7.11
2023-05-06T05:15:21.260Z,7.35
2023-05-06T05:17:48.094Z,7.62
2023-05-06T05:20:14.736Z,7.66
2023-05-06T05:22:41.407Z,7.79
2023-05-06T05:25:08.702Z,7.96
2023-05-06T05:27:35.532Z,7.88
2023-05-06T05:30:02.123Z,7.64
2023-05-06T05:32:28.833Z,7.72
2023-05-06T05:34:55.528Z,7.88
2023-05-06T05:37:22.233Z,7.78
2023-05-06T05:39:48.888Z,7.78
2023-05-06T05:42:15.513Z,7.98
2023-05-06T05:44:42.116Z,8.21
2023-05-06T05:47:08.855Z,8.28
2023-05-06T05:49:36.167Z,8.21
2023-05-06T05:52:02.881Z,8.53
2023-05-06T05:54:29.621Z,8.78
2023-05-06T05:56:56.419Z,8.84
2023-05-06T05:59:23.155Z,8.82
2023-05-06T06:01:49.861Z,8.97
2023-05-06T06:04:16.739Z,8.88
2023-05-06T06:06:43.430Z,8.74
2023-05-06T06:09:10.760Z,9.17
2023-05-06T06:11:37.537Z,9.46
2023-05-06T06:14:04.148Z,9.92
2023-05-06T06:16:30.854Z,9.73
2023-05-06T06:18:57.559Z,10.06
2023-05-06T06:21:24.209Z,10.31
2023-05-06T06:23:50.809Z,10.72
2023-05-06T06:26:17.394Z,10.95
2023-05-06T06:28:44.910Z,10.99
2023-05-06T06:31:11.808Z,10.93
2023-05-06T06:33:38.483Z,11.30
2023-05-06T06:36:05.598Z,11.70
2023-05-06T06:38:32.317Z,12.15
2023-05-06T06:40:59.026Z,11.70
2023-05-06T06:43:25.829Z,11.96
2023-05-06T06:45:52.594Z,12.05
2023-05-06T06:48:19.346Z,12.03
2023-05-06T06:50:46.293Z,12.31
2023-05-06T06:53:12.943Z,12.45
2023-05-06T06:55:43.070Z,12.69
2023-05-06T06:58:09.665Z,12.67
2023-05-06T07:00:36.470Z,12.69
2023-05-06T07:03:03.309Z,12.93
2023-05-06T07:05:30.174Z,12.78
2023-05-06T07:07:56.977Z,12.72
2023-05-06T07:10:23.605Z,13.00
2023-05-06T07:12:50.372Z,13.22
2023-05-06T07:15:17.034Z,13.25
2023-05-06T07:17:43.953Z,13.52
2023-05-06T07:20:11.067Z,13.87
2023-05-06T07:22:37.919Z,14.45
2023-05-06T07:25:04.897Z,14.54
2023-05-06T07:27:31.666Z,14.95
2023-05-06T07:29:58.351Z,14.68
2023-05-06T07:32:25.114Z,14.51
2023-05-06T07:34:51.833Z,14.99
2023-05-06T07:37:18.533Z,15.21
2023-05-06T07:39:45.483Z,15.23
2023-05-06T07:42:13.213Z,15.22
2023-05-06T07:44:40.156Z,15.18
2023-05-06T07:47:07.001Z,15.15
2023-05-06T07:49:35.214Z,15.06
2023-05-06T07:52:02.107Z,14.90
2023-05-06T07:54:28.964Z,15.14
2023-05-06T07:56:55.950Z,15.63
2023-05-06T07:59:22.647Z,15.64
2023-05-06T08:01:49.307Z,15.15
2023-05-06T08:04:16.370Z,15.23
2023-05-06T08:06:43.068Z,15.36
2023-05-06T08:09:11.382Z,15.21
2023-05-06T08:11:39.648Z,15.67
2023-05-06T08:14:06.264Z,15.74
2023-05-06T08:16:33.015Z,15.42
2023-05-06T08:18:59.739Z,15.48
2023-05-06T08:21:26.454Z,15.57
2023-05-06T08:23:53.171Z,15.48
2023-05-06T08:26:19.802Z,15.44
2023-05-06T08:28:46.395Z,15.26
2023-05-06T08:31:13.162Z,15.51
2023-05-06T08:33:39.798Z,15.62
2023-05-06T08:36:06.568Z,15.41
2023-05-06T08:38:33.270Z,15.30
2023-05-06T08:41:00.988Z,15.69
2023-05-06T08:43:27.735Z,16.13
2023-05-06T08:45:54.790Z,15.87
2023-05-06T08:48:21.448Z,15.79
2023-05-06T08:50:48.005Z,15.78
2023-05-06T08:53:14.901Z,15.54
2023-05-06T08:55:42.239Z,15.52
2023-05-06T08:58:09.099Z,16.07
2023-05-06T09:00:35.920Z,15.88
2023-05-06T09:03:02.818Z,15.88
2023-05-06T09:05:29.583Z,15.99
2023-05-06T09:07:56.366Z,16.26
2023-05-06T09:10:23.039Z,16.28
2023-05-06T09:12:49.790Z,16.03
2023-05-06T09:15:16.523Z,15.95
2023-05-06T09:17:43.260Z,16.23
2023-05-06T09:20:12.197Z,16.38
2023-05-06T09:22:40.256Z,16.23
2023-05-06T09:25:07.407Z,16.07
2023-05-06T09:27:34.870Z,15.98
2023-05-06T09:30:01.854Z,15.92
2023-05-06T09:32:29.297Z,15.94
2023-05-06T09:34:56.430Z,16.42
2023-05-06T09:37:23.968Z,16.50
2023-05-06T09:39:50.987Z,17.03
2023-05-06T09:42:18.763Z,17.43
2023-05-06T09:44:45.443Z,17.84
2023-05-06T09:47:12.161Z,17.55
2023-05-06T09:49:38.861Z,17.48
2023-05-06T09:52:06.971Z,17.36
2023-05-06T09:54:33.710Z,16.63
2023-05-06T09:57:01.160Z,16.62
2023-05-06T09:59:28.037Z,16.46
2023-05-06T10:01:55.165Z,16.37
2023-05-06T10:04:25.452Z,16.29
2023-05-06T10:06:55.234Z,16.55
2023-05-06T10:09:23.879Z,16.80
2023-05-06T10:11:52.137Z,16.69
2023-05-06T10:14:19.010Z,16.58
2023-05-06T10:16:48.951Z,16.38
2023-05-06T10:19:18.849Z,16.07
2023-05-06T10:21:54.266Z,16.24
2023-05-06T10:24:28.533Z,16.34
2023-05-06T10:26:55.518Z,16.28
2023-05-06T10:29:22.227Z,16.18
2023-05-06T10:31:57.428Z,16.29
2023-05-06T10:34:24.208Z,16.51
2023-05-06T10:36:52.195Z,16.76
2023-05-06T10:39:18.905Z,16.45
2023-05-06T10:41:45.504Z,16.47
2023-05-06T10:44:12.973Z,16.50
2023-05-06T10:46:59.781Z,16.44
2023-05-06T10:49:27.045Z,15.99
2023-05-06T10:52:43.446Z,16.13
2023-05-06T10:55:31.542Z,16.56
2023-05-06T10:58:06.760Z,16.61
2023-05-06T11:00:34.374Z,16.95
2023-05-06T11:03:02.287Z,17.00
2023-05-06T11:05:29.075Z,17.19
2023-05-06T11:08:11.809Z,17.16
2023-05-06T11:10:38.521Z,17.12
2023-05-06T11:13:24.082Z,17.86
2023-05-06T11:15:52.106Z,17.91
2023-05-06T11:18:24.840Z,18.49
2023-05-06T11:20:52.077Z,18.76
2023-05-06T11:23:19.116Z,19.20
2023-05-06T11:25:47.269Z,18.77
2023-05-06T11:28:14.834Z,18.46
2023-05-06T11:30:44.701Z,18.55
2023-05-06T11:33:18.123Z,18.43
2023-05-06T11:35:44.971Z,17.82
2023-05-06T11:38:12.043Z,17.91
2023-05-06T11:40:38.749Z,17.61
2023-05-06T11:43:15.088Z,17.65
2023-05-06T11:45:48.545Z,17.62
2023-05-06T11:48:15.602Z,17.73
2023-05-06T11:50:49.335Z,17.94
2023-05-06T11:53:21.070Z,17.87
2023-05-06T11:55:48.057Z,18.05
2023-05-06T11:58:16.592Z,18.35
2023-05-06T12:00:52.325Z,18.35
2023-05-06T12:03:20.039Z,18.50
2023-05-06T12:05:48.372Z,18.54
2023-05-06T12:08:27.958Z,18.28
2023-05-06T12:10:59.645Z,18.27
2023-05-06T12:13:27.047Z,18.58
2023-05-06T12:15:54.618Z,18.33
2023-05-06T12:18:21.320Z,18.53
2023-05-06T12:20:47.996Z,19.11
2023-05-06T12:23:15.629Z,19.27
2023-05-06T12:25:43.209Z,19.38
2023-05-06T12:28:19.360Z,19.02
2023-05-06T12:30:46.554Z,19.22
2023-05-06T12:33:13.256Z,18.77
2023-05-06T12:35:40.326Z,19.01
2023-05-06T12:38:14.270Z,18.86
2023-05-06T12:40:41.796Z,18.81
2023-05-06T12:43:09.094Z,18.73
2023-05-06T12:45:36.008Z,18.60
2023-05-06T12:48:03.035Z,18.24
2023-05-06T12:50:45.221Z,18.15
2023-05-06T12:53:15.880Z,18.23
2023-05-06T12:55:42.583Z,18.42
2023-05-06T12:58:16.422Z,18.60
2023-05-06T13:00:43.137Z,18.91
2023-05-06T13:03:11.567Z,19.45
2023-05-06T13:05:38.366Z,19.89
2023-05-06T13:08:05.437Z,20.84
2023-05-06T13:10:32.053Z,21.21
2023-05-06T13:12:58.772Z,21.60
2023-05-06T13:15:25.399Z,21.61
2023-05-06T13:17:52.105Z,21.36
2023-05-06T13:20:18.761Z,21.77
2023-05-06T13:22:54.430Z,21.75
2023-05-06T13:25:22.215Z,21.71
2023-05-06T13:27:49.125Z,21.80
2023-05-06T13:30:15.899Z,22.72
2023-05-06T13:32:42.580Z,22.84
2023-05-06T13:35:10.011Z,22.12
2023-05-06T13:37:36.913Z,21.87
2023-05-06T13:40:04.878Z,22.42
2023-05-06T13:42:31.636Z,22.02
2023-05-06T13:44:58.268Z,22.30
2023-05-06T13:47:25.267Z,22.26
2023-05-06T13:49:52.107Z,22.59
2023-05-06T13:52:19.357Z,22.72
2023-05-06T13:54:47.565Z,22.77
2023-05-06T13:57:14.221Z,22.70
2023-05-06T13:59:40.888Z,22.37
2023-05-06T14:02:09.677Z,21.53
2023-05-06T14:04:39.043Z,21.03
2023-05-06T14:07:05.816Z,20.62
2023-05-06T14:09:32.418Z,20.50
2023-05-06T14:11:59.150Z,20.17
2023-05-06T14:14:27.457Z,20.17
2023-05-06T14:16:55.685Z,20.08
2023-05-06T14:19:22.430Z,19.81
2023-05-06T14:21:49.189Z,19.80
2023-05-06T14:24:15.839Z,20.12
2023-05-06T14:26:42.732Z,20.16
2023-05-06T14:29:09.418Z,20.20
2023-05-06T14:31:36.142Z,20.06
2023-05-06T14:34:02.998Z,19.80
2023-05-06T14:36:29.672Z,19.44
2023-05-06T14:38:56.387Z,19.29
2023-05-06T14:41:23.060Z,19.34
2023-05-06T14:43:49.773Z,19.16
2023-05-06T14:46:16.541Z,19.20
2023-05-06T14:48:43.712Z,19.19
2023-05-06T14:51:10.488Z,19.54
2023-05-06T14:53:37.152Z,19.54
2023-05-06T14:56:03.796Z,19.34
2023-05-06T14:58:30.483Z,19.19
2023-05-06T15:00:57.166Z,19.18
2023-05-06T15:03:23.950Z,19.22
2023-05-06T15:05:51.057Z,19.37
2023-05-06T15:08:17.711Z,19.67
2023-05-06T15:10:44.557Z,20.46
2023-05-06T15:13:11.402Z,20.95
2023-05-06T15:15:38.133Z,21.52
2023-05-06T15:18:04.909Z,21.50
2023-05-06T15:20:31.675Z,21.92
2023-05-06T15:22:58.357Z,22.25
2023-05-06T15:25:34.932Z,22.66
2023-05-06T15:28:03.060Z,22.70
2023-05-06T15:30:29.693Z,22.92
2023-05-06T15:32:56.343Z,22.96
2023-05-06T15:35:22.943Z,22.87
2023-05-06T15:37:49.583Z,22.73
2023-05-06T15:40:16.266Z,22.59
2023-05-06T15:42:42.992Z,22.39
2023-05-06T15:45:11.173Z,22.04
2023-05-06T15:47:37.880Z,21.77
2023-05-06T15:50:16.411Z,21.46
2023-05-06T15:52:47.780Z,21.28
2023-05-06T15:55:14.436Z,21.09
2023-05-06T15:57:43.156Z,20.68
2023-05-06T16:00:10.613Z,20.01
2023-05-06T16:02:37.845Z,19.92
2023-05-06T16:05:05.258Z,19.72
2023-05-06T16:07:32.048Z,19.56
2023-05-06T16:09:58.616Z,19.39
2023-05-06T16:12:25.387Z,19.30
2023-05-06T16:14:52.046Z,19.12
2023-05-06T16:17:18.802Z,18.91
2023-05-06T16:19:45.462Z,18.83
2023-05-06T16:22:12.024Z,18.83
2023-05-06T16:24:38.807Z,18.69
2023-05-06T16:27:05.734Z,18.64
2023-05-06T16:29:32.545Z,18.61
2023-05-06T16:31:59.243Z,18.57
2023-05-06T16:34:26.081Z,18.45
2023-05-06T16:36:52.931Z,18.30
2023-05-06T16:39:19.661Z,18.35
2023-05-06T16:41:46.703Z,18.28
2023-05-06T16:44:13.332Z,18.37
2023-05-06T16:46:40.035Z,18.09
2023-05-06T16:49:07.136Z,18.25
2023-05-06T16:51:33.925Z,18.41
2023-05-06T16:54:00.773Z,18.38
2023-05-06T16:56:36.629Z,18.11
2023-05-06T16:59:07.136Z,18.13
2023-05-06T17:01:33.799Z,18.22
2023-05-06T17:04:00.461Z,18.02
2023-05-06T17:06:31.240Z,18.07
2023-05-06T17:08:58.477Z,17.94
2023-05-06T17:11:25.156Z,18.11
2023-05-06T17:13:53.145Z,17.82
2023-05-06T17:16:20.168Z,17.46
2023-05-06T17:18:47.761Z,17.34
2023-05-06T17:21:14.472Z,17.34
2023-05-06T17:23:41.153Z,17.32
2023-05-06T17:26:10.360Z,16.95
2023-05-06T17:28:37.818Z,16.79
2023-05-06T17:31:04.844Z,16.60
2023-05-06T17:33:31.564Z,16.34
2023-05-06T17:35:58.198Z,16.34
2023-05-06T17:38:24.852Z,16.45
2023-05-06T17:40:51.481Z,16.31
2023-05-06T17:43:18.053Z,16.22
2023-05-06T17:45:44.686Z,16.23
2023-05-06T17:48:11.379Z,15.96
2023-05-06T17:50:38.153Z,16.08
2023-05-06T17:53:04.842Z,15.88
2023-05-06T17:55:31.516Z,15.56
2023-05-06T17:57:58.474Z,15.56
2023-05-06T18:00:25.187Z,15.47
2023-05-06T18:02:52.163Z,15.25
2023-05-06T18:05:19.001Z,15.23
2023-05-06T18:07:46.507Z,15.06
2023-05-06T18:10:13.144Z,15.11
2023-05-06T18:12:39.996Z,15.01
2023-05-06T18:15:07.352Z,14.75
2023-05-06T18:17:34.248Z,14.54
2023-05-06T18:20:00.857Z,14.66
2023-05-06T18:22:27.523Z,14.46
2023-05-06T18:24:55.383Z,14.29
2023-05-06T18:27:22.473Z,14.25
2023-05-06T18:29:49.216Z,14.36
2023-05-06T18:32:15.948Z,14.39
2023-05-06T18:34:42.695Z,14.51
2023-05-06T18:37:09.512Z,14.36
2023-05-06T18:39:40.899Z,14.15
2023-05-06T18:42:07.476Z,13.94
2023-05-06T18:44:34.238Z,13.67
2023-05-06T18:47:01.638Z,13.48
2023-05-06T18:49:28.522Z,13.43
2023-05-06T18:51:56.153Z,13.24
2023-05-06T18:54:23.930Z,13.25
2023-05-06T18:56:53.422Z,13.06
2023-05-06T18:59:20.544Z,13.00
2023-05-06T19:01:47.316Z,13.01
2023-05-06T19:04:13.982Z,12.95
2023-05-06T19:06:41.037Z,12.86
2023-05-06T19:09:08.136Z,12.91
2023-05-06T19:11:35.021Z,12.77
2023-05-06T19:14:01.694Z,12.67
2023-05-06T19:16:28.498Z,12.59
2023-05-06T19:18:55.127Z,12.53
2023-05-06T19:21:21.954Z,12.49
2023-05-06T19:23:48.637Z,12.40
2023-05-06T19:26:15.333Z,12.32
2023-05-06T19:28:42.033Z,12.13
2023-05-06T19:31:09.629Z,12.00
2023-05-06T19:33:39.770Z,11.57
2023-05-06T19:36:06.766Z,11.61
2023-05-06T19:38:33.927Z,11.14
2023-05-06T19:41:01.128Z,10.82
2023-05-06T19:43:27.866Z,10.77
2023-05-06T19:45:54.598Z,11.05
2023-05-06T19:48:22.244Z,11.22
2023-05-06T19:50:48.993Z,11.33
2023-05-06T19:53:15.797Z,11.13
2023-05-06T19:55:42.549Z,11.10
2023-05-06T19:58:09.706Z,10.89
2023-05-06T20:00:36.360Z,10.92
2023-05-06T20:03:03.058Z,10.91
2023-05-06T20:05:31.405Z,10.92
2023-05-06T20:08:01.689Z,10.88
2023-05-06T20:10:28.506Z,10.69
2023-05-06T20:12:57.355Z,10.48
2023-05-06T20:15:24.612Z,10.41
2023-05-06T20:17:51.413Z,10.17
2023-05-06T20:20:19.451Z,9.97
2023-05-06T20:22:46.148Z,10.20
2023-05-06T20:25:17.602Z,10.30
2023-05-06T20:27:44.761Z,10.31
2023-05-06T20:30:11.591Z,10.00
2023-05-06T20:32:39.388Z,10.05
2023-05-06T20:35:06.529Z,10.24
2023-05-06T20:37:36.725Z,10.34
2023-05-06T20:40:05.718Z,9.90
2023-05-06T20:42:32.410Z,9.27
2023-05-06T20:44:59.222Z,8.96
2023-05-06T20:47:26.416Z,9.22
2023-05-06T20:49:53.322Z,9.23
2023-05-06T20:52:21.514Z,9.37
2023-05-06T20:54:48.192Z,9.50
2023-05-06T20:57:15.723Z,9.54
2023-05-06T20:59:42.894Z,9.48
2023-05-06T21:02:09.692Z,9.47
2023-05-06T21:04:36.509Z,9.39
2023-05-06T21:07:03.160Z,9.22
2023-05-06T21:09:29.998Z,9.27
2023-05-06T21:11:56.634Z,9.36
2023-05-06T21:14:24.890Z,9.36
2023-05-06T21:16:52.185Z,9.27
2023-05-06T21:19:18.910Z,9.10
2023-05-06T21:21:45.717Z,8.88
2023-05-06T21:24:13.087Z,9.01
2023-05-06T21:26:39.974Z,9.12
2023-05-06T21:29:06.688Z,9.21
2023-05-06T21:31:33.418Z,8.69
2023-05-06T21:34:00.275Z,8.58
2023-05-06T21:36:27.268Z,8.25
2023-05-06T21:39:01.902Z,8.53
2023-05-06T21:41:28.649Z,8.02
2023-05-06T21:43:55.329Z,7.70
2023-05-06T21:46:22.041Z,8.03
2023-05-06T21:48:48.691Z,8.29
2023-05-06T21:51:15.397Z,8.46
2023-05-06T21:53:42.078Z,8.55
2023-05-06T21:56:08.718Z,8.38
2023-05-06T21:58:35.474Z,8.16
2023-05-06T22:01:02.151Z,8.04
2023-05-06T22:03:28.984Z,7.83
2023-05-06T22:05:55.713Z,7.89
2023-05-06T22:08:22.375Z,7.85
2023-05-06T22:10:49.220Z,8.05
2023-05-06T22:13:16.434Z,8.28
2023-05-06T22:15:43.419Z,7.97
2023-05-06T22:18:10.336Z,7.76
2023-05-06T22:20:37.640Z,7.81
2023-05-06T22:23:04.400Z,7.81
2023-05-06T22:25:31.031Z,7.97
2023-05-06T22:27:57.734Z,7.84
2023-05-06T22:30:24.419Z,7.96
2023-05-06T22:32:51.217Z,7.60
2023-05-06T22:35:18.014Z,7.88
2023-05-06T22:37:45.274Z,7.68
2023-05-06T22:40:12.375Z,7.92
2023-05-06T22:42:39.083Z,7.62
2023-05-06T22:45:06.871Z,7.41
2023-05-06T22:47:33.650Z,7.45
2023-05-06T22:50:00.250Z,7.57
2023-05-06T22:52:27.033Z,7.71
2023-05-06T22:54:54.175Z,7.79
2023-05-06T22:57:23.285Z,7.58
2023-05-06T22:59:50.000Z,7.33
2023-05-06T23:02:16.695Z,7.28
2023-05-06T23:04:43.391Z,7.43
2023-05-06T23:07:10.117Z,7.53
2023-05-06T23:09:36.837Z,7.51
2023-05-06T23:12:03.620Z,7.50
2023-05-06T23:14:30.410Z,7.40
2023-05-06T23:16:57.159Z,7.31
2023-05-06T23:19:23.966Z,7.18
2023-05-06T23:21:50.643Z,7.19
2023-05-06T23:24:17.218Z,7.14
2023-05-06T23:26:43.801Z,7.09
2023-05-06T23:29:10.516Z,7.24
2023-05-06T23:31:37.226Z,7.30
2023-05-06T23:34:03.817Z,6.71
2023-05-06T23:36:30.845Z,6.45
2023-05-06T23:38:57.579Z,6.54
2023-05-06T23:41:24.480Z,6.25
2023-05-06T23:43:51.233Z,6.49
2023-05-06T23:46:17.889Z,6.82
2023-05-06T23:48:44.613Z,7.30
2023-05-06T23:51:11.377Z,7.27
2023-05-06T23:53:38.037Z,7.41
2023-05-06T23:56:05.085Z,7.05
2023-05-06T23:58:31.766Z,7.03
